sensor_id;sensor_type;location;lat;lon;timestamp;temperature;humidity
66752;SHT31;53663;42.676;23.238;2022-10-22T00:01:47;6.95;80.16
66752;SHT31;53663;42.676;23.238;2022-10-22T00:04:13;6.97;79.96
66752;SHT31;53663;42.676;23.238;2022-10-22T00:06:38;6.92;79.88
66752;SHT31;53663;42.676;23.238;2022-10-22T00:09:05;6.94;79.96
66752;SHT31;53663;42.676;23.238;2022-10-22T00:11:31;6.92;79.85
66752;SHT31;53663;42.676;23.238;2022-10-22T00:13:56;6.94;79.83
66752;SHT31;53663;42.676;23.238;2022-10-22T00:16:22;6.97;79.90
66752;SHT31;53663;42.676;23.238;2022-10-22T00:18:48;6.91;80.36
66752;SHT31;53663;42.676;23.238;2022-10-22T00:21:13;6.81;80.40
66752;SHT31;53663;42.676;23.238;2022-10-22T00:23:40;6.73;80.72
66752;SHT31;53663;42.676;23.238;2022-10-22T00:26:06;6.78;80.45
66752;SHT31;53663;42.676;23.238;2022-10-22T00:28:32;6.77;80.41
66752;SHT31;53663;42.676;23.238;2022-10-22T00:30:59;6.80;80.07
66752;SHT31;53663;42.676;23.238;2022-10-22T00:33:26;6.70;80.59
66752;SHT31;53663;42.676;23.238;2022-10-22T00:35:52;6.68;80.57
66752;SHT31;53663;42.676;23.238;2022-10-22T00:38:18;6.71;80.70
66752;SHT31;53663;42.676;23.238;2022-10-22T00:40:43;6.67;80.93
66752;SHT31;53663;42.676;23.238;2022-10-22T00:43:11;6.60;81.19
66752;SHT31;53663;42.676;23.238;2022-10-22T00:45:37;6.67;80.67
66752;SHT31;53663;42.676;23.238;2022-10-22T00:52:57;6.15;83.14
66752;SHT31;53663;42.676;23.238;2022-10-22T00:55:24;6.23;82.80
66752;SHT31;53663;42.676;23.238;2022-10-22T00:57:53;6.37;82.22
66752;SHT31;53663;42.676;23.238;2022-10-22T01:00:20;6.43;81.96
66752;SHT31;53663;42.676;23.238;2022-10-22T01:02:46;6.43;81.86
66752;SHT31;53663;42.676;23.238;2022-10-22T01:05:12;6.39;81.95
66752;SHT31;53663;42.676;23.238;2022-10-22T01:07:50;6.37;82.08
66752;SHT31;53663;42.676;23.238;2022-10-22T01:15:30;6.33;82.30
66752;SHT31;53663;42.676;23.238;2022-10-22T01:18:00;6.37;82.12
66752;SHT31;53663;42.676;23.238;2022-10-22T01:31:02;6.46;81.64
66752;SHT31;53663;42.676;23.238;2022-10-22T01:33:29;6.39;81.51
66752;SHT31;53663;42.676;23.238;2022-10-22T01:35:56;6.34;81.82
66752;SHT31;53663;42.676;23.238;2022-10-22T01:38:24;6.27;81.91
66752;SHT31;53663;42.676;23.238;2022-10-22T01:40:50;6.34;82.10
66752;SHT31;53663;42.676;23.238;2022-10-22T01:43:16;6.39;81.71
66752;SHT31;53663;42.676;23.238;2022-10-22T01:54:02;6.37;81.48
66752;SHT31;53663;42.676;23.238;2022-10-22T01:59:38;6.32;81.61
66752;SHT31;53663;42.676;23.238;2022-10-22T02:02:29;6.25;81.63
66752;SHT31;53663;42.676;23.238;2022-10-22T02:05:08;6.29;81.45
66752;SHT31;53663;42.676;23.238;2022-10-22T02:07:40;6.23;81.79
66752;SHT31;53663;42.676;23.238;2022-10-22T02:10:07;6.27;81.27
66752;SHT31;53663;42.676;23.238;2022-10-22T02:12:34;6.25;81.46
66752;SHT31;53663;42.676;23.238;2022-10-22T02:15:01;6.22;81.65
66752;SHT31;53663;42.676;23.238;2022-10-22T02:17:30;6.22;81.67
66752;SHT31;53663;42.676;23.238;2022-10-22T02:20:05;6.20;81.73
66752;SHT31;53663;42.676;23.238;2022-10-22T02:22:31;6.22;81.03
66752;SHT31;53663;42.676;23.238;2022-10-22T02:24:56;6.12;81.55
66752;SHT31;53663;42.676;23.238;2022-10-22T02:27:32;6.12;81.82
66752;SHT31;53663;42.676;23.238;2022-10-22T02:30:07;6.09;82.22
66752;SHT31;53663;42.676;23.238;2022-10-22T02:32:50;6.02;82.61
66752;SHT31;53663;42.676;23.238;2022-10-22T02:35:21;6.06;82.68
66752;SHT31;53663;42.676;23.238;2022-10-22T02:37:48;5.99;83.11
66752;SHT31;53663;42.676;23.238;2022-10-22T02:40:14;6.06;82.62
66752;SHT31;53663;42.676;23.238;2022-10-22T02:42:40;6.12;82.60
66752;SHT31;53663;42.676;23.238;2022-10-22T02:45:07;6.13;82.70
66752;SHT31;53663;42.676;23.238;2022-10-22T02:47:33;6.16;82.41
66752;SHT31;53663;42.676;23.238;2022-10-22T02:49:58;6.10;82.27
66752;SHT31;53663;42.676;23.238;2022-10-22T02:52:24;6.10;82.29
66752;SHT31;53663;42.676;23.238;2022-10-22T02:54:49;6.05;82.44
66752;SHT31;53663;42.676;23.238;2022-10-22T02:57:15;6.05;82.67
66752;SHT31;53663;42.676;23.238;2022-10-22T02:59:40;6.05;82.77
66752;SHT31;53663;42.676;23.238;2022-10-22T03:02:06;6.10;82.77
66752;SHT31;53663;42.676;23.238;2022-10-22T03:04:31;6.12;82.50
66752;SHT31;53663;42.676;23.238;2022-10-22T03:06:57;6.15;82.62
66752;SHT31;53663;42.676;23.238;2022-10-22T03:09:23;6.10;82.86
66752;SHT31;53663;42.676;23.238;2022-10-22T03:11:48;6.13;82.68
66752;SHT31;53663;42.676;23.238;2022-10-22T03:14:14;5.87;83.69
66752;SHT31;53663;42.676;23.238;2022-10-22T03:16:39;5.68;84.67
66752;SHT31;53663;42.676;23.238;2022-10-22T03:19:05;5.81;83.79
66752;SHT31;53663;42.676;23.238;2022-10-22T03:24:02;5.78;83.71
66752;SHT31;53663;42.676;23.238;2022-10-22T03:26:29;5.78;83.49
66752;SHT31;53663;42.676;23.238;2022-10-22T03:28:54;5.78;83.58
66752;SHT31;53663;42.676;23.238;2022-10-22T03:31:20;5.81;83.82
66752;SHT31;53663;42.676;23.238;2022-10-22T03:33:45;5.84;83.67
66752;SHT31;53663;42.676;23.238;2022-10-22T03:36:11;5.84;84.02
66752;SHT31;53663;42.676;23.238;2022-10-22T03:38:37;5.89;83.82
66752;SHT31;53663;42.676;23.238;2022-10-22T03:41:04;5.91;83.69
66752;SHT31;53663;42.676;23.238;2022-10-22T03:43:30;5.92;83.58
66752;SHT31;53663;42.676;23.238;2022-10-22T03:45:55;5.98;82.97
66752;SHT31;53663;42.676;23.238;2022-10-22T03:48:21;5.92;82.97
66752;SHT31;53663;42.676;23.238;2022-10-22T03:50:47;5.92;83.00
66752;SHT31;53663;42.676;23.238;2022-10-22T03:53:12;5.89;82.77
66752;SHT31;53663;42.676;23.238;2022-10-22T03:55:39;5.85;83.26
66752;SHT31;53663;42.676;23.238;2022-10-22T03:58:05;5.82;83.74
66752;SHT31;53663;42.676;23.238;2022-10-22T04:00:32;5.78;83.69
66752;SHT31;53663;42.676;23.238;2022-10-22T04:02:58;5.70;84.06
66752;SHT31;53663;42.676;23.238;2022-10-22T04:05:23;5.50;85.44
66752;SHT31;53663;42.676;23.238;2022-10-22T04:07:49;5.64;84.90
66752;SHT31;53663;42.676;23.238;2022-10-22T04:10:14;5.77;84.49
66752;SHT31;53663;42.676;23.238;2022-10-22T04:12:40;5.77;84.84
66752;SHT31;53663;42.676;23.238;2022-10-22T04:15:06;5.81;84.76
66752;SHT31;53663;42.676;23.238;2022-10-22T04:17:34;5.94;84.57
66752;SHT31;53663;42.676;23.238;2022-10-22T04:19:59;6.06;84.21
66752;SHT31;53663;42.676;23.238;2022-10-22T04:22:25;6.16;84.10
66752;SHT31;53663;42.676;23.238;2022-10-22T04:24:50;6.26;84.03
66752;SHT31;53663;42.676;23.238;2022-10-22T04:27:16;6.32;83.84
66752;SHT31;53663;42.676;23.238;2022-10-22T04:29:41;6.41;83.55
66752;SHT31;53663;42.676;23.238;2022-10-22T04:32:07;6.51;83.14
66752;SHT31;53663;42.676;23.238;2022-10-22T04:34:32;6.54;83.22
66752;SHT31;53663;42.676;23.238;2022-10-22T04:36:58;6.57;83.04
66752;SHT31;53663;42.676;23.238;2022-10-22T04:39:23;6.66;82.96
66752;SHT31;53663;42.676;23.238;2022-10-22T04:41:49;6.73;82.90
66752;SHT31;53663;42.676;23.238;2022-10-22T04:44:15;6.80;82.77
66752;SHT31;53663;42.676;23.238;2022-10-22T04:46:40;6.85;82.62
66752;SHT31;53663;42.676;23.238;2022-10-22T04:49:06;6.88;82.65
66752;SHT31;53663;42.676;23.238;2022-10-22T04:51:31;6.98;82.37
66752;SHT31;53663;42.676;23.238;2022-10-22T04:53:57;7.08;82.09
66752;SHT31;53663;42.676;23.238;2022-10-22T04:56:25;7.11;82.08
66752;SHT31;53663;42.676;23.238;2022-10-22T04:58:55;7.20;81.81
66752;SHT31;53663;42.676;23.238;2022-10-22T05:01:23;7.30;81.71
66752;SHT31;53663;42.676;23.238;2022-10-22T05:03:53;7.20;81.87
66752;SHT31;53663;42.676;23.238;2022-10-22T05:06:20;7.33;81.88
66752;SHT31;53663;42.676;23.238;2022-10-22T05:08:46;7.39;81.64
66752;SHT31;53663;42.676;23.238;2022-10-22T05:11:17;7.45;81.44
66752;SHT31;53663;42.676;23.238;2022-10-22T05:13:43;7.53;81.25
66752;SHT31;53663;42.676;23.238;2022-10-22T05:16:09;7.47;81.13
66752;SHT31;53663;42.676;23.238;2022-10-22T05:18:36;7.42;81.42
66752;SHT31;53663;42.676;23.238;2022-10-22T05:21:03;7.47;81.02
66752;SHT31;53663;42.676;23.238;2022-10-22T05:23:29;7.27;81.84
66752;SHT31;53663;42.676;23.238;2022-10-22T05:25:54;7.30;81.53
66752;SHT31;53663;42.676;23.238;2022-10-22T05:28:20;7.35;81.34
66752;SHT31;53663;42.676;23.238;2022-10-22T05:30:53;7.40;81.09
66752;SHT31;53663;42.676;23.238;2022-10-22T05:33:19;7.53;80.67
66752;SHT31;53663;42.676;23.238;2022-10-22T05:35:49;7.59;80.39
66752;SHT31;53663;42.676;23.238;2022-10-22T05:38:15;7.70;80.00
66752;SHT31;53663;42.676;23.238;2022-10-22T05:40:41;7.83;79.53
66752;SHT31;53663;42.676;23.238;2022-10-22T05:43:07;8.04;79.02
66752;SHT31;53663;42.676;23.238;2022-10-22T05:45:39;8.28;78.23
66752;SHT31;53663;42.676;23.238;2022-10-22T05:48:05;9.41;75.66
66752;SHT31;53663;42.676;23.238;2022-10-22T05:50:35;10.97;70.42
66752;SHT31;53663;42.676;23.238;2022-10-22T05:53:01;12.23;65.85
66752;SHT31;53663;42.676;23.238;2022-10-22T05:55:26;11.92;64.97
66752;SHT31;53663;42.676;23.238;2022-10-22T05:57:52;11.24;65.87
66752;SHT31;53663;42.676;23.238;2022-10-22T06:00:17;10.49;68.25
66752;SHT31;53663;42.676;23.238;2022-10-22T06:02:43;10.30;69.36
66752;SHT31;53663;42.676;23.238;2022-10-22T06:05:08;10.33;69.15
66752;SHT31;53663;42.676;23.238;2022-10-22T06:07:34;11.48;67.43
66752;SHT31;53663;42.676;23.238;2022-10-22T06:10:00;14.08;60.13
66752;SHT31;53663;42.676;23.238;2022-10-22T06:12:26;16.10;52.27
66752;SHT31;53663;42.676;23.238;2022-10-22T06:14:52;17.71;48.36
66752;SHT31;53663;42.676;23.238;2022-10-22T06:17:17;19.00;43.60
66752;SHT31;53663;42.676;23.238;2022-10-22T06:19:44;20.20;41.83
66752;SHT31;53663;42.676;23.238;2022-10-22T06:22:10;21.18;40.01
66752;SHT31;53663;42.676;23.238;2022-10-22T06:24:35;21.95;37.57
66752;SHT31;53663;42.676;23.238;2022-10-22T06:27:01;22.68;35.63
66752;SHT31;53663;42.676;23.238;2022-10-22T06:29:26;23.04;35.03
66752;SHT31;53663;42.676;23.238;2022-10-22T06:31:52;22.60;35.23
66752;SHT31;53663;42.676;23.238;2022-10-22T06:34:17;22.19;36.65
66752;SHT31;53663;42.676;23.238;2022-10-22T06:36:44;23.52;34.38
66752;SHT31;53663;42.676;23.238;2022-10-22T06:39:11;23.48;34.56
66752;SHT31;53663;42.676;23.238;2022-10-22T06:41:37;24.86;32.46
66752;SHT31;53663;42.676;23.238;2022-10-22T06:44:03;24.06;34.09
66752;SHT31;53663;42.676;23.238;2022-10-22T06:46:28;24.71;32.76
66752;SHT31;53663;42.676;23.238;2022-10-22T06:49:00;25.73;30.70
66752;SHT31;53663;42.676;23.238;2022-10-22T06:51:27;24.38;32.31
66752;SHT31;53663;42.676;23.238;2022-10-22T06:53:54;25.37;31.38
66752;SHT31;53663;42.676;23.238;2022-10-22T06:56:22;27.10;29.05
66752;SHT31;53663;42.676;23.238;2022-10-22T06:58:52;25.57;30.42
66752;SHT31;53663;42.676;23.238;2022-10-22T07:01:18;25.34;31.06
66752;SHT31;53663;42.676;23.238;2022-10-22T07:03:44;26.52;29.65
66752;SHT31;53663;42.676;23.238;2022-10-22T07:06:12;27.46;27.95
66752;SHT31;53663;42.676;23.238;2022-10-22T07:08:38;27.31;27.83
66752;SHT31;53663;42.676;23.238;2022-10-22T07:11:26;29.26;25.83
66752;SHT31;53663;42.676;23.238;2022-10-22T07:13:56;29.17;24.92
66752;SHT31;53663;42.676;23.238;2022-10-22T07:16:22;29.62;24.57
66752;SHT31;53663;42.676;23.238;2022-10-22T07:18:48;30.52;23.51
66752;SHT31;53663;42.676;23.238;2022-10-22T07:21:15;30.68;23.17
66752;SHT31;53663;42.676;23.238;2022-10-22T07:23:41;31.05;22.34
66752;SHT31;53663;42.676;23.238;2022-10-22T07:26:08;31.90;22.12
66752;SHT31;53663;42.676;23.238;2022-10-22T07:28:35;28.40;25.63
66752;SHT31;53663;42.676;23.238;2022-10-22T07:31:02;26.94;28.37
66752;SHT31;53663;42.676;23.238;2022-10-22T07:33:28;29.33;25.36
66752;SHT31;53663;42.676;23.238;2022-10-22T07:36:02;26.64;27.94
66752;SHT31;53663;42.676;23.238;2022-10-22T07:38:29;30.05;24.35
66752;SHT31;53663;42.676;23.238;2022-10-22T07:40:56;30.74;22.96
66752;SHT31;53663;42.676;23.238;2022-10-22T07:43:22;29.57;23.98
66752;SHT31;53663;42.676;23.238;2022-10-22T07:45:48;30.61;23.00
66752;SHT31;53663;42.676;23.238;2022-10-22T07:48:13;30.66;22.64
66752;SHT31;53663;42.676;23.238;2022-10-22T07:50:39;30.95;22.50
66752;SHT31;53663;42.676;23.238;2022-10-22T07:53:05;31.86;21.46
66752;SHT31;53663;42.676;23.238;2022-10-22T07:55:33;29.06;24.36
66752;SHT31;53663;42.676;23.238;2022-10-22T07:57:59;26.76;27.85
66752;SHT31;53663;42.676;23.238;2022-10-22T08:00:24;29.12;25.05
66752;SHT31;53663;42.676;23.238;2022-10-22T08:02:50;29.41;24.54
66752;SHT31;53663;42.676;23.238;2022-10-22T08:05:15;30.36;23.62
66752;SHT31;53663;42.676;23.238;2022-10-22T08:07:42;29.62;23.94
66752;SHT31;53663;42.676;23.238;2022-10-22T08:10:08;30.57;23.17
66752;SHT31;53663;42.676;23.238;2022-10-22T08:12:34;31.31;21.94
66752;SHT31;53663;42.676;23.238;2022-10-22T08:15:00;29.14;25.13
66752;SHT31;53663;42.676;23.238;2022-10-22T08:17:26;30.52;23.31
66752;SHT31;53663;42.676;23.238;2022-10-22T08:19:52;30.33;23.40
66752;SHT31;53663;42.676;23.238;2022-10-22T08:22:17;31.77;21.98
66752;SHT31;53663;42.676;23.238;2022-10-22T08:24:43;32.83;20.88
66752;SHT31;53663;42.676;23.238;2022-10-22T08:27:09;33.71;19.97
66752;SHT31;53663;42.676;23.238;2022-10-22T08:29:34;30.99;23.08
66752;SHT31;53663;42.676;23.238;2022-10-22T08:32:00;28.38;25.83
66752;SHT31;53663;42.676;23.238;2022-10-22T08:34:27;31.12;21.96
66752;SHT31;53663;42.676;23.238;2022-10-22T08:36:53;32.16;21.74
66752;SHT31;53663;42.676;23.238;2022-10-22T08:39:19;33.47;20.07
66752;SHT31;53663;42.676;23.238;2022-10-22T08:47:19;32.94;20.84
66752;SHT31;53663;42.676;23.238;2022-10-22T08:49:47;33.43;20.93
66752;SHT31;53663;42.676;23.238;2022-10-22T08:52:15;33.74;19.81
66752;SHT31;53663;42.676;23.238;2022-10-22T08:55:02;34.86;19.01
66752;SHT31;53663;42.676;23.238;2022-10-22T09:05:54;34.13;19.84
66752;SHT31;53663;42.676;23.238;2022-10-22T09:08:21;33.50;20.67
66752;SHT31;53663;42.676;23.238;2022-10-22T09:10:57;35.18;18.61
66752;SHT31;53663;42.676;23.238;2022-10-22T09:13:25;35.75;18.44
66752;SHT31;53663;42.676;23.238;2022-10-22T09:16:15;34.82;18.99
66752;SHT31;53663;42.676;23.238;2022-10-22T09:24:43;34.21;19.26
66752;SHT31;53663;42.676;23.238;2022-10-22T09:27:24;30.04;23.73
66752;SHT31;53663;42.676;23.238;2022-10-22T09:29:50;29.68;24.74
66752;SHT31;53663;42.676;23.238;2022-10-22T09:32:16;28.91;25.71
66752;SHT31;53663;42.676;23.238;2022-10-22T09:34:46;32.32;21.50
66752;SHT31;53663;42.676;23.238;2022-10-22T09:37:11;33.36;20.37
66752;SHT31;53663;42.676;23.238;2022-10-22T09:39:44;33.82;19.99
66752;SHT31;53663;42.676;23.238;2022-10-22T09:42:14;33.90;19.58
66752;SHT31;53663;42.676;23.238;2022-10-22T09:44:40;31.80;21.59
66752;SHT31;53663;42.676;23.238;2022-10-22T09:47:12;30.88;22.74
66752;SHT31;53663;42.676;23.238;2022-10-22T09:50:45;31.47;22.31
66752;SHT31;53663;42.676;23.238;2022-10-22T09:53:04;32.35;21.75
66752;SHT31;53663;42.676;23.238;2022-10-22T09:55:37;33.97;20.06
66752;SHT31;53663;42.676;23.238;2022-10-22T09:58:03;34.13;19.66
66752;SHT31;53663;42.676;23.238;2022-10-22T10:00:29;31.80;22.31
66752;SHT31;53663;42.676;23.238;2022-10-22T10:02:56;29.61;24.11
66752;SHT31;53663;42.676;23.238;2022-10-22T10:05:32;30.13;23.45
66752;SHT31;53663;42.676;23.238;2022-10-22T10:08:00;30.25;23.85
66752;SHT31;53663;42.676;23.238;2022-10-22T10:10:39;31.72;22.11
66752;SHT31;53663;42.676;23.238;2022-10-22T10:15:59;34.55;20.28
66752;SHT31;53663;42.676;23.238;2022-10-22T10:18:41;34.19;19.90
66752;SHT31;53663;42.676;23.238;2022-10-22T10:21:24;30.84;23.92
66752;SHT31;53663;42.676;23.238;2022-10-22T10:24:00;32.65;21.79
66752;SHT31;53663;42.676;23.238;2022-10-22T10:26:36;33.55;20.29
66752;SHT31;53663;42.676;23.238;2022-10-22T10:34:49;33.23;22.32
66752;SHT31;53663;42.676;23.238;2022-10-22T10:37:25;32.72;21.78
66752;SHT31;53663;42.676;23.238;2022-10-22T10:42:42;31.67;23.02
66752;SHT31;53663;42.676;23.238;2022-10-22T11:01:23;25.89;30.63
66752;SHT31;53663;42.676;23.238;2022-10-22T11:07:17;24.82;31.44
66752;SHT31;53663;42.676;23.238;2022-10-22T11:09:52;24.44;32.29
66752;SHT31;53663;42.676;23.238;2022-10-22T11:12:27;24.54;32.02
66752;SHT31;53663;42.676;23.238;2022-10-22T11:17:39;24.21;32.99
66752;SHT31;53663;42.676;23.238;2022-10-22T11:20:18;23.59;34.55
66752;SHT31;53663;42.676;23.238;2022-10-22T11:23:00;23.83;33.25
66752;SHT31;53663;42.676;23.238;2022-10-22T11:25:33;23.62;34.23
66752;SHT31;53663;42.676;23.238;2022-10-22T11:31:06;23.69;33.85
66752;SHT31;53663;42.676;23.238;2022-10-22T11:33:53;23.42;34.10
66752;SHT31;53663;42.676;23.238;2022-10-22T11:36:22;22.67;36.86
66752;SHT31;53663;42.676;23.238;2022-10-22T11:38:50;22.68;35.36
66752;SHT31;53663;42.676;23.238;2022-10-22T11:41:18;22.42;36.69
66752;SHT31;53663;42.676;23.238;2022-10-22T11:49:01;22.64;35.49
66752;SHT31;53663;42.676;23.238;2022-10-22T11:51:32;22.28;37.16
66752;SHT31;53663;42.676;23.238;2022-10-22T11:54:01;22.77;36.64
66752;SHT31;53663;42.676;23.238;2022-10-22T11:56:36;22.87;35.45
66752;SHT31;53663;42.676;23.238;2022-10-22T11:59:03;22.71;35.48
66752;SHT31;53663;42.676;23.238;2022-10-22T12:01:41;22.63;35.28
66752;SHT31;53663;42.676;23.238;2022-10-22T12:04:20;22.88;35.80
66752;SHT31;53663;42.676;23.238;2022-10-22T12:06:59;22.64;37.51
66752;SHT31;53663;42.676;23.238;2022-10-22T12:09:27;22.80;35.42
66752;SHT31;53663;42.676;23.238;2022-10-22T12:12:02;23.01;36.97
66752;SHT31;53663;42.676;23.238;2022-10-22T12:17:19;23.48;34.64
66752;SHT31;53663;42.676;23.238;2022-10-22T12:22:23;23.87;35.07
66752;SHT31;53663;42.676;23.238;2022-10-22T12:24:52;23.92;33.39
66752;SHT31;53663;42.676;23.238;2022-10-22T12:27:21;23.72;33.99
66752;SHT31;53663;42.676;23.238;2022-10-22T12:29:47;24.09;33.68
66752;SHT31;53663;42.676;23.238;2022-10-22T12:32:14;25.07;31.84
66752;SHT31;53663;42.676;23.238;2022-10-22T12:34:45;26.02;31.33
66752;SHT31;53663;42.676;23.238;2022-10-22T12:37:13;26.56;29.27
66752;SHT31;53663;42.676;23.238;2022-10-22T12:39:39;26.52;29.37
66752;SHT31;53663;42.676;23.238;2022-10-22T12:42:04;27.02;29.76
66752;SHT31;53663;42.676;23.238;2022-10-22T12:44:32;27.55;28.35
66752;SHT31;53663;42.676;23.238;2022-10-22T12:46:57;27.94;27.48
66752;SHT31;53663;42.676;23.238;2022-10-22T12:49:39;28.17;27.35
66752;SHT31;53663;42.676;23.238;2022-10-22T12:52:07;28.10;27.71
66752;SHT31;53663;42.676;23.238;2022-10-22T12:54:37;28.35;26.93
66752;SHT31;53663;42.676;23.238;2022-10-22T12:57:03;27.71;28.05
66752;SHT31;53663;42.676;23.238;2022-10-22T12:59:37;28.06;27.05
66752;SHT31;53663;42.676;23.238;2022-10-22T13:02:23;27.22;28.45
66752;SHT31;53663;42.676;23.238;2022-10-22T13:05:14;27.43;27.90
66752;SHT31;53663;42.676;23.238;2022-10-22T13:07:47;27.76;27.60
66752;SHT31;53663;42.676;23.238;2022-10-22T13:10:25;27.83;27.25
66752;SHT31;53663;42.676;23.238;2022-10-22T13:12:56;27.87;27.13
66752;SHT31;53663;42.676;23.238;2022-10-22T13:18:20;27.05;28.23
66752;SHT31;53663;42.676;23.238;2022-10-22T13:20:58;26.83;28.47
66752;SHT31;53663;42.676;23.238;2022-10-22T13:23:27;25.38;31.05
66752;SHT31;53663;42.676;23.238;2022-10-22T13:26:02;24.38;32.05
66752;SHT31;53663;42.676;23.238;2022-10-22T13:28:30;23.53;33.77
66752;SHT31;53663;42.676;23.238;2022-10-22T13:31:01;22.77;35.12
66752;SHT31;53663;42.676;23.238;2022-10-22T13:33:34;22.20;36.54
66752;SHT31;53663;42.676;23.238;2022-10-22T13:36:01;22.56;36.41
66752;SHT31;53663;42.676;23.238;2022-10-22T13:38:27;23.00;35.06
66752;SHT31;53663;42.676;23.238;2022-10-22T13:40:54;22.86;34.97
66752;SHT31;53663;42.676;23.238;2022-10-22T13:43:20;22.49;35.45
66752;SHT31;53663;42.676;23.238;2022-10-22T13:45:47;21.75;36.86
66752;SHT31;53663;42.676;23.238;2022-10-22T13:48:16;21.27;38.14
66752;SHT31;53663;42.676;23.238;2022-10-22T13:50:43;20.98;38.69
66752;SHT31;53663;42.676;23.238;2022-10-22T13:53:17;20.51;40.71
66752;SHT31;53663;42.676;23.238;2022-10-22T13:55:44;20.20;41.44
66752;SHT31;53663;42.676;23.238;2022-10-22T13:58:11;20.04;41.09
66752;SHT31;53663;42.676;23.238;2022-10-22T14:00:38;20.09;43.58
66752;SHT31;53663;42.676;23.238;2022-10-22T14:03:05;20.00;41.67
66752;SHT31;53663;42.676;23.238;2022-10-22T14:05:34;20.13;42.04
66752;SHT31;53663;42.676;23.238;2022-10-22T14:08:00;19.93;42.77
66752;SHT31;53663;42.676;23.238;2022-10-22T14:10:26;20.09;41.55
66752;SHT31;53663;42.676;23.238;2022-10-22T14:12:52;20.21;41.31
66752;SHT31;53663;42.676;23.238;2022-10-22T14:15:20;20.38;41.19
66752;SHT31;53663;42.676;23.238;2022-10-22T14:17:50;20.25;40.56
66752;SHT31;53663;42.676;23.238;2022-10-22T14:20:22;20.27;40.70
66752;SHT31;53663;42.676;23.238;2022-10-22T14:22:49;19.87;41.98
66752;SHT31;53663;42.676;23.238;2022-10-22T14:25:17;19.80;42.03
66752;SHT31;53663;42.676;23.238;2022-10-22T14:27:44;19.69;42.52
66752;SHT31;53663;42.676;23.238;2022-10-22T14:30:20;19.58;44.51
66752;SHT31;53663;42.676;23.238;2022-10-22T14:32:46;19.59;44.87
66752;SHT31;53663;42.676;23.238;2022-10-22T14:35:15;19.34;45.94
66752;SHT31;53663;42.676;23.238;2022-10-22T14:37:41;19.38;45.07
66752;SHT31;53663;42.676;23.238;2022-10-22T14:40:08;19.44;47.46
66752;SHT31;53663;42.676;23.238;2022-10-22T14:42:37;19.39;45.87
66752;SHT31;53663;42.676;23.238;2022-10-22T14:45:05;19.51;45.20
66752;SHT31;53663;42.676;23.238;2022-10-22T14:47:31;19.41;46.04
66752;SHT31;53663;42.676;23.238;2022-10-22T14:49:56;19.32;47.02
66752;SHT31;53663;42.676;23.238;2022-10-22T14:52:22;19.44;46.38
66752;SHT31;53663;42.676;23.238;2022-10-22T14:54:47;19.48;45.93
66752;SHT31;53663;42.676;23.238;2022-10-22T14:57:13;19.31;48.97
66752;SHT31;53663;42.676;23.238;2022-10-22T14:59:41;19.28;49.75
66752;SHT31;53663;42.676;23.238;2022-10-22T15:02:11;18.97;48.93
66752;SHT31;53663;42.676;23.238;2022-10-22T15:04:37;18.56;51.07
66752;SHT31;53663;42.676;23.238;2022-10-22T15:07:03;18.77;50.01
66752;SHT31;53663;42.676;23.238;2022-10-22T15:09:29;18.62;50.81
66752;SHT31;53663;42.676;23.238;2022-10-22T15:11:54;18.35;53.50
66752;SHT31;53663;42.676;23.238;2022-10-22T15:14:20;18.33;53.84
66752;SHT31;53663;42.676;23.238;2022-10-22T15:16:45;18.33;52.39
66752;SHT31;53663;42.676;23.238;2022-10-22T15:19:11;18.24;54.69
66752;SHT31;53663;42.676;23.238;2022-10-22T15:21:37;18.12;54.32
66752;SHT31;53663;42.676;23.238;2022-10-22T15:24:03;17.87;55.34
66752;SHT31;53663;42.676;23.238;2022-10-22T15:26:29;17.83;54.61
66752;SHT31;53663;42.676;23.238;2022-10-22T15:28:54;17.85;54.65
66752;SHT31;53663;42.676;23.238;2022-10-22T15:31:47;17.70;54.74
66752;SHT31;53663;42.676;23.238;2022-10-22T15:34:20;17.64;54.74
66752;SHT31;53663;42.676;23.238;2022-10-22T15:36:47;17.51;54.53
66752;SHT31;53663;42.676;23.238;2022-10-22T15:39:13;17.43;54.87
66752;SHT31;53663;42.676;23.238;2022-10-22T15:41:39;17.26;55.64
66752;SHT31;53663;42.676;23.238;2022-10-22T15:44:05;17.16;55.88
66752;SHT31;53663;42.676;23.238;2022-10-22T15:46:33;17.11;55.53
66752;SHT31;53663;42.676;23.238;2022-10-22T15:49:00;16.84;56.00
66752;SHT31;53663;42.676;23.238;2022-10-22T15:51:25;16.65;56.39
66752;SHT31;53663;42.676;23.238;2022-10-22T15:53:53;16.63;56.61
66752;SHT31;53663;42.676;23.238;2022-10-22T15:56:20;16.63;56.10
66752;SHT31;53663;42.676;23.238;2022-10-22T15:58:45;16.34;56.88
66752;SHT31;53663;42.676;23.238;2022-10-22T16:01:13;16.24;57.00
66752;SHT31;53663;42.676;23.238;2022-10-22T16:03:39;16.27;57.23
66752;SHT31;53663;42.676;23.238;2022-10-22T16:06:05;16.31;56.75
66752;SHT31;53663;42.676;23.238;2022-10-22T16:08:31;16.16;57.51
66752;SHT31;53663;42.676;23.238;2022-10-22T16:10:57;16.05;57.70
66752;SHT31;53663;42.676;23.238;2022-10-22T16:13:23;16.12;57.59
66752;SHT31;53663;42.676;23.238;2022-10-22T16:15:50;16.13;57.68
66752;SHT31;53663;42.676;23.238;2022-10-22T16:18:17;16.00;56.77
66752;SHT31;53663;42.676;23.238;2022-10-22T16:20:43;15.93;57.67
66752;SHT31;53663;42.676;23.238;2022-10-22T16:23:09;15.83;58.11
66752;SHT31;53663;42.676;23.238;2022-10-22T16:25:39;15.78;58.09
66752;SHT31;53663;42.676;23.238;2022-10-22T16:28:04;15.66;58.30
66752;SHT31;53663;42.676;23.238;2022-10-22T16:30:35;15.69;58.47
66752;SHT31;53663;42.676;23.238;2022-10-22T16:33:01;15.54;59.21
66752;SHT31;53663;42.676;23.238;2022-10-22T16:35:27;15.54;59.05
66752;SHT31;53663;42.676;23.238;2022-10-22T16:37:52;15.34;59.73
66752;SHT31;53663;42.676;23.238;2022-10-22T16:40:18;15.47;59.26
66752;SHT31;53663;42.676;23.238;2022-10-22T16:42:44;15.59;59.07
66752;SHT31;53663;42.676;23.238;2022-10-22T16:45:10;15.54;59.09
66752;SHT31;53663;42.676;23.238;2022-10-22T16:47:35;15.58;59.40
66752;SHT31;53663;42.676;23.238;2022-10-22T16:50:01;15.58;59.25
66752;SHT31;53663;42.676;23.238;2022-10-22T16:52:26;15.57;58.51
66752;SHT31;53663;42.676;23.238;2022-10-22T16:54:52;15.55;59.19
66752;SHT31;53663;42.676;23.238;2022-10-22T16:57:17;15.48;59.21
66752;SHT31;53663;42.676;23.238;2022-10-22T16:59:43;15.27;59.68
66752;SHT31;53663;42.676;23.238;2022-10-22T17:02:09;15.30;60.03
66752;SHT31;53663;42.676;23.238;2022-10-22T17:04:35;15.40;58.92
66752;SHT31;53663;42.676;23.238;2022-10-22T17:07:00;15.51;58.08
66752;SHT31;53663;42.676;23.238;2022-10-22T17:09:26;15.61;58.05
66752;SHT31;53663;42.676;23.238;2022-10-22T17:11:51;15.68;57.86